createdAt,value
2022-11-19T01:20:58.702Z,6.73
2022-11-19T01:24:05.255Z,6.75
2022-11-19T01:27:11.122Z,6.57
2022-11-19T01:30:19.570Z,6.78
2022-11-19T01:33:25.089Z,7.41
2022-11-19T01:36:35.843Z,7.75
2022-11-19T01:39:42.890Z,7.48
2022-11-19T01:42:58.387Z,7.28
2022-11-19T01:46:05.252Z,7.70
2022-11-19T01:49:22.618Z,7.46
2022-11-19T01:52:28.959Z,7.81
2022-11-19T01:55:34.619Z,7.76
2022-11-19T01:58:40.682Z,8.02
2022-11-19T02:01:46.969Z,8.10
2022-11-19T02:04:53.276Z,8.16
2022-11-19T02:08:05.643Z,8.39
2022-11-19T02:11:59.435Z,8.30
2022-11-19T02:15:36.243Z,8.51
2022-11-19T02:18:53.102Z,8.52
2022-11-19T02:22:17.378Z,8.55
2022-11-19T02:25:38.834Z,8.76
2022-11-19T02:29:29.523Z,9.20
2022-11-19T02:32:43.938Z,9.67
2022-11-19T02:36:04.571Z,9.36
2022-11-19T02:39:21.243Z,9.64
2022-11-19T02:42:51.245Z,9.79
2022-11-19T02:46:13.893Z,9.53
2022-11-19T02:49:19.547Z,9.96
2022-11-19T02:52:24.838Z,10.32
2022-11-19T02:55:32.203Z,10.16
2022-11-19T02:58:55.933Z,9.84
2022-11-19T03:02:19.946Z,10.28
2022-11-19T03:05:29.054Z,10.03
2022-11-19T03:08:34.342Z,10.02
2022-11-19T03:11:42.441Z,10.07
2022-11-19T03:15:21.703Z,10.26
2022-11-19T03:18:48.635Z,10.80
2022-11-19T03:22:19.637Z,10.98
2022-11-19T03:25:35.827Z,10.51
2022-11-19T03:28:44.251Z,10.24
2022-11-19T03:31:48.717Z,10.55
2022-11-19T03:34:55.000Z,9.67
2022-11-19T03:38:01.844Z,10.36
2022-11-19T03:41:08.970Z,10.38
2022-11-19T03:44:22.356Z,10.16
2022-11-19T03:47:33.393Z,9.87
2022-11-19T03:50:48.566Z,9.72
2022-11-19T03:53:54.867Z,9.74
2022-11-19T03:56:54.144Z,9.52
2022-11-19T04:00:02.081Z,9.63
2022-11-19T04:03:08.616Z,10.02
2022-11-19T04:06:14.574Z,10.34
2022-11-19T04:09:21.243Z,10.24
2022-11-19T04:12:34.617Z,10.89
2022-11-19T04:15:40.432Z,10.83
2022-11-19T04:18:46.332Z,10.36
2022-11-19T04:21:51.708Z,6.66
2022-11-19T04:24:56.445Z,6.69
2022-11-19T04:27:55.363Z,6.96
2022-11-19T04:31:01.920Z,6.88
2022-11-19T04:34:06.968Z,6.65
2022-11-19T04:37:12.883Z,6.53
2022-11-19T04:40:18.698Z,6.60
2022-11-19T04:43:24.318Z,6.62
2022-11-19T04:46:30.469Z,6.64
2022-11-19T04:49:36.784Z,6.73
2022-11-19T04:52:42.471Z,6.73
2022-11-19T04:55:48.093Z,6.79
2022-11-19T04:58:47.168Z,7.36
2022-11-19T05:01:52.761Z,7.20
2022-11-19T05:04:58.826Z,7.70
2022-11-19T05:08:04.720Z,7.88
2022-11-19T05:11:11.268Z,8.18
2022-11-19T05:14:15.950Z,8.32
2022-11-19T05:17:22.125Z,8.54
2022-11-19T05:20:28.890Z,8.53
2022-11-19T05:23:35.211Z,8.58
2022-11-19T05:26:41.514Z,8.91
2022-11-19T05:29:47.938Z,8.80
2022-11-19T05:32:54.419Z,9.25
2022-11-19T05:36:01.024Z,9.20
2022-11-19T05:39:06.863Z,8.27
2022-11-19T05:42:11.847Z,8.86
2022-11-19T05:45:17.621Z,8.96
2022-11-19T05:48:22.402Z,9.00
2022-11-19T05:51:30.840Z,9.14
2022-11-19T05:54:37.061Z,9.39
2022-11-19T05:57:43.908Z,9.32
2022-11-19T06:00:50.221Z,9.29
2022-11-19T06:03:56.949Z,9.70
2022-11-19T06:07:03.859Z,9.76
2022-11-19T06:10:09.109Z,10.07
2022-11-19T06:13:15.141Z,9.65
2022-11-19T06:16:21.181Z,9.68
2022-11-19T06:19:27.988Z,9.93
2022-11-19T06:22:33.465Z,10.02
2022-11-19T06:25:40.035Z,10.35
2022-11-19T06:28:45.523Z,11.22
2022-11-19T06:31:51.262Z,11.25
2022-11-19T06:34:57.643Z,11.43
2022-11-19T06:38:03.446Z,11.61
2022-11-19T06:41:09.934Z,11.78
2022-11-19T06:44:15.269Z,11.91
2022-11-19T06:47:21.367Z,11.96
2022-11-19T06:50:28.638Z,12.09
2022-11-19T06:53:34.142Z,12.36
2022-11-19T06:56:39.904Z,12.14
2022-11-19T06:59:45.668Z,12.21
2022-11-19T07:02:51.704Z,12.48
2022-11-19T07:05:58.821Z,12.56
2022-11-19T07:09:04.728Z,11.80
2022-11-19T07:12:11.645Z,12.28
2022-11-19T07:15:17.387Z,11.80
2022-11-19T07:18:23.191Z,12.36
2022-11-19T07:21:29.750Z,12.02
2022-11-19T12:08:02.071Z,14.63
2022-11-19T12:11:21.458Z,14.99
2022-11-19T12:14:26.892Z,15.32
2022-11-19T12:18:07.662Z,14.69
2022-11-19T12:21:17.672Z,14.34
2022-11-19T12:25:11.269Z,13.73
2022-11-19T12:41:15.828Z,11.62
2022-11-19T12:44:26.704Z,11.61
2022-11-19T12:47:45.218Z,11.45
2022-11-19T12:51:23.512Z,11.51
2022-11-19T12:54:55.242Z,11.23
2022-11-19T12:58:28.118Z,11.07
2022-11-19T13:01:40.736Z,11.14
2022-11-19T13:04:56.455Z,10.90
2022-11-19T13:08:09.320Z,11.25
2022-11-19T13:11:25.255Z,10.46
2022-11-19T13:15:08.593Z,10.78
2022-11-19T13:18:15.819Z,10.60
2022-11-19T13:21:29.319Z,10.46
2022-11-19T13:25:02.810Z,10.24
2022-11-19T13:28:10.291Z,10.07
2022-11-19T13:31:20.770Z,9.87
2022-11-19T13:34:36.827Z,9.78
2022-11-19T13:38:13.137Z,9.94
2022-11-19T13:41:38.156Z,9.56
2022-11-19T13:44:47.858Z,9.35
2022-11-19T13:48:13.956Z,9.44
2022-11-19T13:51:20.213Z,9.63
2022-11-19T14:15:31.660Z,8.17
2022-11-19T14:19:18.734Z,7.93
2022-11-19T14:23:06.889Z,7.93
2022-11-19T14:26:28.100Z,7.90
2022-11-19T14:29:41.843Z,7.52
2022-11-19T14:33:00.765Z,7.51
2022-11-19T14:36:06.619Z,7.57
2022-11-19T14:39:14.662Z,7.47
2022-11-19T14:42:34.833Z,7.47
2022-11-19T14:45:40.673Z,7.40
2022-11-19T14:48:50.109Z,7.39
2022-11-19T14:51:57.151Z,7.14
2022-11-19T14:55:10.049Z,7.30
2022-11-19T14:58:18.349Z,7.29
2022-11-19T15:01:26.666Z,7.45
2022-11-19T15:04:32.040Z,7.54
2022-11-19T15:07:57.031Z,7.27
2022-11-19T15:11:21.064Z,7.43
2022-11-19T15:14:50.641Z,7.54
2022-11-19T15:18:00.626Z,7.47
2022-11-19T15:21:17.613Z,7.45
2022-11-19T15:24:46.724Z,7.60
2022-11-19T15:28:16.129Z,7.25
2022-11-19T15:31:46.589Z,7.43
2022-11-19T15:35:12.191Z,7.18
2022-11-19T15:38:40.793Z,6.88
2022-11-19T15:41:51.151Z,7.15
2022-11-19T15:45:12.804Z,7.02
2022-11-19T15:48:31.534Z,7.00
2022-11-19T15:51:38.862Z,6.70
2022-11-19T15:54:46.665Z,6.93
2022-11-19T15:57:57.765Z,7.12
2022-11-19T16:00:58.291Z,6.70
2022-11-19T16:03:58.810Z,6.77
2022-11-19T16:07:05.774Z,6.04
2022-11-19T16:10:12.618Z,5.73
2022-11-19T16:13:44.130Z,6.12
2022-11-19T16:17:06.363Z,5.95
2022-11-19T19:29:22.201Z,4.35
2022-11-19T19:32:29.400Z,4.30
2022-11-19T19:35:35.084Z,4.12
2022-11-19T19:38:41.604Z,4.29
2022-11-19T19:41:48.122Z,4.28
2022-11-19T19:44:47.533Z,4.23
2022-11-19T19:47:40.155Z,4.41
2022-11-19T19:50:46.164Z,4.66
2022-11-19T19:53:51.784Z,4.79
2022-11-19T19:56:56.911Z,4.98
2022-11-19T20:00:06.015Z,4.89
2022-11-19T20:03:11.684Z,4.63
2022-11-19T20:06:19.234Z,4.66
2022-11-19T20:09:27.042Z,4.52
2022-11-19T20:12:35.599Z,4.46
2022-11-19T20:15:41.787Z,4.57
2022-11-19T20:18:49.141Z,4.62
2022-11-19T20:21:57.091Z,4.69
2022-11-19T20:25:03.887Z,4.81
2022-11-19T20:28:09.088Z,4.65
2022-11-19T20:31:28.230Z,4.68
2022-11-19T20:34:35.095Z,4.71
2022-11-19T20:37:41.463Z,4.73
2022-11-19T20:40:46.532Z,4.72
2022-11-19T20:44:10.083Z,4.58
2022-11-19T20:47:18.563Z,4.66
2022-11-19T20:50:24.637Z,4.54
2022-11-19T20:53:30.909Z,4.56
2022-11-19T20:56:37.196Z,4.67
2022-11-19T20:59:45.159Z,4.66
2022-11-19T21:02:51.073Z,4.76
2022-11-19T21:05:56.590Z,4.55
2022-11-19T21:09:03.513Z,4.22
2022-11-19T21:12:08.461Z,4.17
2022-11-19T21:15:16.315Z,4.18
2022-11-19T21:18:24.283Z,4.16
2022-11-19T21:21:31.461Z,4.06
2022-11-19T21:24:37.491Z,4.07
2022-11-19T21:27:43.416Z,3.93
2022-11-19T21:30:48.653Z,3.87
2022-11-19T21:33:54.917Z,4.31
2022-11-19T21:37:00.857Z,4.30
2022-11-19T21:40:06.898Z,4.39
2022-11-19T21:43:12.421Z,4.31
2022-11-19T21:46:23.077Z,4.26
2022-11-19T21:49:27.284Z,4.35
2022-11-19T21:52:32.593Z,4.50
2022-11-19T21:55:38.400Z,4.63
2022-11-19T21:58:43.827Z,4.62
2022-11-19T22:01:54.524Z,4.73
2022-11-19T22:04:57.882Z,4.93
2022-11-19T22:08:03.061Z,4.75
2022-11-19T22:11:09.988Z,4.00
2022-11-19T22:14:18.603Z,3.92
2022-11-19T22:17:25.822Z,4.02
2022-11-19T22:20:31.709Z,4.16
2022-11-19T22:23:38.313Z,4.25
2022-11-19T22:26:44.340Z,4.46
2022-11-19T22:29:50.999Z,4.46
2022-11-19T22:32:56.529Z,4.48
2022-11-19T22:36:06.449Z,4.40
2022-11-19T22:39:02.715Z,4.52
2022-11-19T22:42:02.390Z,4.47
2022-11-19T22:45:07.735Z,4.70
2022-11-19T22:48:13.371Z,4.27
2022-11-19T22:51:25.360Z,4.35
2022-11-19T22:54:30.201Z,4.10
2022-11-19T22:57:36.582Z,4.04
2022-11-19T23:00:59.399Z,4.12
2022-11-19T23:04:06.087Z,4.35
2022-11-19T23:07:12.866Z,4.45
2022-11-19T23:10:19.050Z,4.19
2022-11-19T23:13:41.225Z,4.33
2022-11-19T23:16:46.058Z,4.68
2022-11-19T23:19:52.166Z,4.88
2022-11-19T23:22:58.984Z,5.21
2022-11-19T23:26:14.581Z,5.15
2022-11-19T23:29:20.271Z,5.08
2022-11-19T23:32:25.707Z,5.15
2022-11-19T23:35:31.525Z,5.21
2022-11-19T23:38:37.367Z,5.30
2022-11-19T23:41:43.501Z,5.45
2022-11-19T23:44:48.855Z,5.34
2022-11-19T23:47:55.454Z,4.65
2022-11-19T23:51:02.613Z,5.09
2022-11-19T23:54:08.246Z,5.21
2022-11-19T23:57:14.438Z,5.05
